METAR Data
IDs: Format: Raw Decoded Include TAF

Data at: 1107 UTC 30 Oct 2020

METAR for:KBTP (Butler Cnty/Scholter, PA, US)
Text:KBTP 301056Z AUTO 33003KT 10SM OVC030 06/04 A2989 RMK AO2 SLP133 T00560044 PNO $
Temperature: 5.6°C ( 42°F)
Dewpoint: 4.4°C ( 40°F) [RH = 92%]
Pressure (altimeter):29.89 inches Hg (1012.3 mb) [Sea level pressure: 1013.3 mb]
Winds:from the NNW (330 degrees) at 3 MPH (3 knots; 1.5 m/s)
Visibility:10 or more sm (16+ km)
Ceiling:3000 feet AGL
Clouds: overcast cloud deck at 3000 feet AGL
QC Flag:automated observation with no human augmentation; SOME DATA ABOVE MAY BE INACCURATE!!!"$" is an indication the sensor requires maintenance.
Text:KBTP 301026Z AUTO 36004KT 10SM OVC030 06/04 A2987 RMK AO2 PNO $
Temperature: 6.0°C ( 43°F)
Dewpoint: 4.0°C ( 39°F) [RH = 87%]
Pressure (altimeter):29.87 inches Hg (1011.6 mb)
Winds:from the N (360 degrees) at 5 MPH (4 knots; 2.1 m/s)
Visibility:10 or more sm (16+ km)
Ceiling:3000 feet AGL
Clouds: overcast cloud deck at 3000 feet AGL
QC Flag:automated observation with no human augmentation; SOME DATA ABOVE MAY BE INACCURATE!!!"$" is an indication the sensor requires maintenance.
Text:KBTP 300956Z AUTO 02006KT 10SM FEW021 OVC028 06/04 A2986 RMK AO2 SLP123 T00560044 PNO $
Temperature: 5.6°C ( 42°F)
Dewpoint: 4.4°C ( 40°F) [RH = 92%]
Pressure (altimeter):29.86 inches Hg (1011.3 mb) [Sea level pressure: 1012.3 mb]
Winds:from the NNE (20 degrees) at 7 MPH (6 knots; 3.1 m/s)
Visibility:10 or more sm (16+ km)
Ceiling:2800 feet AGL
Clouds: few clouds at 2100 feet AGL, overcast cloud deck at 2800 feet AGL
QC Flag:automated observation with no human augmentation; SOME DATA ABOVE MAY BE INACCURATE!!!"$" is an indication the sensor requires maintenance.
Text:KBTP 300911Z AUTO 01007KT 10SM SCT013 OVC019 06/04 A2984 RMK AO2 PNO $
Temperature: 6.0°C ( 43°F)
Dewpoint: 4.0°C ( 39°F) [RH = 87%]
Pressure (altimeter):29.84 inches Hg (1010.6 mb)
Winds:from the N (10 degrees) at 8 MPH (7 knots; 3.6 m/s)
Visibility:10 or more sm (16+ km)
Ceiling:1900 feet AGL
Clouds: scattered clouds at 1300 feet AGL, overcast cloud deck at 1900 feet AGL
QC Flag:automated observation with no human augmentation; SOME DATA ABOVE MAY BE INACCURATE!!!"$" is an indication the sensor requires maintenance.